sensor_id;sensor_type;location;lat;lon;timestamp;P1;durP1;ratioP1;P2;durP2;ratioP2
70148;SDS011;57514;52.164;5.282;2023-11-21T00:00:35;17.77;;;6.45;;
70148;SDS011;57514;52.164;5.282;2023-11-21T00:03:03;22.10;;;6.68;;
70148;SDS011;57514;52.164;5.282;2023-11-21T00:05:30;21.65;;;7.10;;
70148;SDS011;57514;52.164;5.282;2023-11-21T00:07:58;22.60;;;7.40;;
70148;SDS011;57514;52.164;5.282;2023-11-21T00:10:25;23.52;;;7.95;;
70148;SDS011;57514;52.164;5.282;2023-11-21T00:12:53;18.92;;;7.38;;
70148;SDS011;57514;52.164;5.282;2023-11-21T00:15:21;21.55;;;8.02;;
70148;SDS011;57514;52.164;5.282;2023-11-21T00:17:49;20.75;;;7.90;;
70148;SDS011;57514;52.164;5.282;2023-11-21T00:20:16;25.80;;;8.57;;
70148;SDS011;57514;52.164;5.282;2023-11-21T00:22:43;21.42;;;7.38;;
70148;SDS011;57514;52.164;5.282;2023-11-21T00:25:11;24.10;;;7.82;;
70148;SDS011;57514;52.164;5.282;2023-11-21T00:27:41;23.85;;;7.85;;
70148;SDS011;57514;52.164;5.282;2023-11-21T00:30:08;22.50;;;7.72;;
70148;SDS011;57514;52.164;5.282;2023-11-21T00:32:35;22.65;;;7.45;;
70148;SDS011;57514;52.164;5.282;2023-11-21T00:35:04;25.98;;;7.78;;
70148;SDS011;57514;52.164;5.282;2023-11-21T00:37:32;22.48;;;7.35;;
70148;SDS011;57514;52.164;5.282;2023-11-21T00:39:59;22.35;;;7.50;;
70148;SDS011;57514;52.164;5.282;2023-11-21T00:42:30;24.25;;;8.13;;
70148;SDS011;57514;52.164;5.282;2023-11-21T00:45:01;18.85;;;7.47;;
70148;SDS011;57514;52.164;5.282;2023-11-21T00:47:29;18.13;;;7.30;;
70148;SDS011;57514;52.164;5.282;2023-11-21T00:49:57;20.83;;;7.43;;
70148;SDS011;57514;52.164;5.282;2023-11-21T00:52:24;19.00;;;6.68;;
70148;SDS011;57514;52.164;5.282;2023-11-21T00:54:51;19.25;;;7.13;;
70148;SDS011;57514;52.164;5.282;2023-11-21T00:57:18;21.10;;;7.20;;
70148;SDS011;57514;52.164;5.282;2023-11-21T00:59:46;21.60;;;7.53;;
70148;SDS011;57514;52.164;5.282;2023-11-21T01:02:13;21.98;;;7.25;;
70148;SDS011;57514;52.164;5.282;2023-11-21T01:04:41;25.80;;;8.48;;
70148;SDS011;57514;52.164;5.282;2023-11-21T01:07:10;22.92;;;7.45;;
70148;SDS011;57514;52.164;5.282;2023-11-21T01:09:37;23.02;;;8.20;;
70148;SDS011;57514;52.164;5.282;2023-11-21T01:12:05;28.52;;;8.77;;
70148;SDS011;57514;52.164;5.282;2023-11-21T01:14:33;23.20;;;7.68;;
70148;SDS011;57514;52.164;5.282;2023-11-21T01:17:00;21.50;;;7.30;;
70148;SDS011;57514;52.164;5.282;2023-11-21T01:19:28;23.38;;;7.97;;
70148;SDS011;57514;52.164;5.282;2023-11-21T01:21:56;21.20;;;7.43;;
70148;SDS011;57514;52.164;5.282;2023-11-21T01:24:24;17.90;;;6.78;;
70148;SDS011;57514;52.164;5.282;2023-11-21T01:26:51;21.92;;;7.07;;
70148;SDS011;57514;52.164;5.282;2023-11-21T01:29:18;21.92;;;7.03;;
70148;SDS011;57514;52.164;5.282;2023-11-21T01:31:46;22.15;;;6.95;;
70148;SDS011;57514;52.164;5.282;2023-11-21T01:34:13;14.00;;;5.88;;
70148;SDS011;57514;52.164;5.282;2023-11-21T01:36:40;16.50;;;5.50;;
70148;SDS011;57514;52.164;5.282;2023-11-21T01:39:08;18.88;;;6.75;;
70148;SDS011;57514;52.164;5.282;2023-11-21T01:41:39;16.73;;;6.20;;
70148;SDS011;57514;52.164;5.282;2023-11-21T01:44:06;16.20;;;5.65;;
70148;SDS011;57514;52.164;5.282;2023-11-21T01:46:35;13.70;;;5.35;;
70148;SDS011;57514;52.164;5.282;2023-11-21T01:49:04;17.67;;;5.50;;
70148;SDS011;57514;52.164;5.282;2023-11-21T01:51:31;18.20;;;6.07;;
70148;SDS011;57514;52.164;5.282;2023-11-21T01:54:01;16.65;;;5.47;;
70148;SDS011;57514;52.164;5.282;2023-11-21T01:56:43;17.45;;;6.00;;
70148;SDS011;57514;52.164;5.282;2023-11-21T01:59:11;17.67;;;6.57;;
70148;SDS011;57514;52.164;5.282;2023-11-21T02:01:39;19.58;;;6.32;;
70148;SDS011;57514;52.164;5.282;2023-11-21T02:04:07;16.52;;;5.70;;
70148;SDS011;57514;52.164;5.282;2023-11-21T02:06:35;20.42;;;6.72;;
70148;SDS011;57514;52.164;5.282;2023-11-21T02:09:02;15.52;;;6.28;;
70148;SDS011;57514;52.164;5.282;2023-11-21T02:11:31;16.42;;;5.60;;
70148;SDS011;57514;52.164;5.282;2023-11-21T02:14:01;15.73;;;5.53;;
70148;SDS011;57514;52.164;5.282;2023-11-21T02:16:28;16.38;;;6.05;;
70148;SDS011;57514;52.164;5.282;2023-11-21T02:18:57;15.85;;;6.68;;
70148;SDS011;57514;52.164;5.282;2023-11-21T02:21:26;15.02;;;6.20;;
70148;SDS011;57514;52.164;5.282;2023-11-21T02:23:54;15.23;;;6.60;;
70148;SDS011;57514;52.164;5.282;2023-11-21T02:26:21;14.98;;;5.47;;
70148;SDS011;57514;52.164;5.282;2023-11-21T02:28:48;15.73;;;5.85;;
70148;SDS011;57514;52.164;5.282;2023-11-21T02:31:16;15.77;;;6.13;;
70148;SDS011;57514;52.164;5.282;2023-11-21T02:33:45;15.20;;;5.60;;
70148;SDS011;57514;52.164;5.282;2023-11-21T02:36:12;14.02;;;5.63;;
70148;SDS011;57514;52.164;5.282;2023-11-21T02:38:39;15.88;;;5.80;;
70148;SDS011;57514;52.164;5.282;2023-11-21T02:41:06;17.13;;;6.15;;
70148;SDS011;57514;52.164;5.282;2023-11-21T02:43:34;14.23;;;5.80;;
70148;SDS011;57514;52.164;5.282;2023-11-21T02:46:02;17.02;;;5.88;;
70148;SDS011;57514;52.164;5.282;2023-11-21T02:48:29;15.90;;;6.13;;
70148;SDS011;57514;52.164;5.282;2023-11-21T02:50:57;13.82;;;5.68;;
70148;SDS011;57514;52.164;5.282;2023-11-21T02:53:24;15.23;;;6.03;;
70148;SDS011;57514;52.164;5.282;2023-11-21T02:55:52;16.85;;;6.32;;
70148;SDS011;57514;52.164;5.282;2023-11-21T02:58:19;16.88;;;6.13;;
70148;SDS011;57514;52.164;5.282;2023-11-21T03:00:46;18.60;;;6.38;;
70148;SDS011;57514;52.164;5.282;2023-11-21T03:03:14;16.00;;;6.93;;
70148;SDS011;57514;52.164;5.282;2023-11-21T03:05:41;16.58;;;6.43;;
70148;SDS011;57514;52.164;5.282;2023-11-21T03:08:09;14.57;;;5.57;;
70148;SDS011;57514;52.164;5.282;2023-11-21T03:10:36;15.73;;;6.05;;
70148;SDS011;57514;52.164;5.282;2023-11-21T03:13:03;17.52;;;6.15;;
70148;SDS011;57514;52.164;5.282;2023-11-21T03:15:31;16.30;;;6.32;;
70148;SDS011;57514;52.164;5.282;2023-11-21T03:17:59;16.75;;;5.80;;
70148;SDS011;57514;52.164;5.282;2023-11-21T03:20:26;17.98;;;6.15;;
70148;SDS011;57514;52.164;5.282;2023-11-21T03:22:53;17.45;;;6.35;;
70148;SDS011;57514;52.164;5.282;2023-11-21T03:25:21;20.23;;;6.00;;
70148;SDS011;57514;52.164;5.282;2023-11-21T03:27:50;14.65;;;5.70;;
70148;SDS011;57514;52.164;5.282;2023-11-21T03:30:18;16.92;;;5.57;;
70148;SDS011;57514;52.164;5.282;2023-11-21T03:32:45;20.08;;;5.70;;
70148;SDS011;57514;52.164;5.282;2023-11-21T03:35:13;20.98;;;6.15;;
70148;SDS011;57514;52.164;5.282;2023-11-21T03:37:41;17.30;;;5.20;;
70148;SDS011;57514;52.164;5.282;2023-11-21T03:40:10;15.65;;;5.18;;
70148;SDS011;57514;52.164;5.282;2023-11-21T03:42:39;14.40;;;5.55;;
70148;SDS011;57514;52.164;5.282;2023-11-21T03:45:06;15.38;;;5.57;;
70148;SDS011;57514;52.164;5.282;2023-11-21T03:47:35;17.50;;;6.15;;
70148;SDS011;57514;52.164;5.282;2023-11-21T03:50:02;21.70;;;6.63;;
70148;SDS011;57514;52.164;5.282;2023-11-21T03:52:29;15.05;;;5.82;;
70148;SDS011;57514;52.164;5.282;2023-11-21T03:54:59;14.85;;;5.80;;
70148;SDS011;57514;52.164;5.282;2023-11-21T03:57:26;17.38;;;5.78;;
70148;SDS011;57514;52.164;5.282;2023-11-21T03:59:56;18.25;;;5.90;;
70148;SDS011;57514;52.164;5.282;2023-11-21T04:02:23;15.93;;;5.60;;
70148;SDS011;57514;52.164;5.282;2023-11-21T04:04:52;15.23;;;5.88;;
70148;SDS011;57514;52.164;5.282;2023-11-21T04:07:19;17.27;;;5.35;;
70148;SDS011;57514;52.164;5.282;2023-11-21T04:09:48;16.17;;;5.55;;
70148;SDS011;57514;52.164;5.282;2023-11-21T04:12:15;17.48;;;6.25;;
70148;SDS011;57514;52.164;5.282;2023-11-21T04:14:42;16.77;;;5.72;;
70148;SDS011;57514;52.164;5.282;2023-11-21T04:17:09;16.52;;;6.22;;
70148;SDS011;57514;52.164;5.282;2023-11-21T04:19:37;16.15;;;5.72;;
70148;SDS011;57514;52.164;5.282;2023-11-21T04:22:04;15.93;;;5.53;;
70148;SDS011;57514;52.164;5.282;2023-11-21T04:24:31;19.30;;;6.10;;
70148;SDS011;57514;52.164;5.282;2023-11-21T04:26:59;16.90;;;5.30;;
70148;SDS011;57514;52.164;5.282;2023-11-21T04:29:26;17.77;;;5.65;;
70148;SDS011;57514;52.164;5.282;2023-11-21T04:31:53;15.50;;;5.28;;
70148;SDS011;57514;52.164;5.282;2023-11-21T04:34:21;18.40;;;5.72;;
70148;SDS011;57514;52.164;5.282;2023-11-21T04:36:49;18.67;;;5.45;;
70148;SDS011;57514;52.164;5.282;2023-11-21T04:39:16;17.75;;;6.32;;
70148;SDS011;57514;52.164;5.282;2023-11-21T04:41:44;18.30;;;5.72;;
70148;SDS011;57514;52.164;5.282;2023-11-21T04:44:12;17.90;;;5.70;;
70148;SDS011;57514;52.164;5.282;2023-11-21T04:46:39;15.07;;;5.15;;
70148;SDS011;57514;52.164;5.282;2023-11-21T04:49:06;15.43;;;5.55;;
70148;SDS011;57514;52.164;5.282;2023-11-21T04:51:33;12.65;;;4.88;;
70148;SDS011;57514;52.164;5.282;2023-11-21T04:54:01;13.43;;;5.25;;
70148;SDS011;57514;52.164;5.282;2023-11-21T04:56:28;15.00;;;5.60;;
70148;SDS011;57514;52.164;5.282;2023-11-21T04:58:55;16.50;;;5.70;;
70148;SDS011;57514;52.164;5.282;2023-11-21T05:01:22;18.70;;;6.10;;
70148;SDS011;57514;52.164;5.282;2023-11-21T05:03:50;20.65;;;6.22;;
70148;SDS011;57514;52.164;5.282;2023-11-21T05:06:18;15.98;;;5.38;;
70148;SDS011;57514;52.164;5.282;2023-11-21T05:08:46;17.42;;;5.40;;
70148;SDS011;57514;52.164;5.282;2023-11-21T05:11:22;14.02;;;5.07;;
70148;SDS011;57514;52.164;5.282;2023-11-21T05:13:49;16.30;;;5.55;;
70148;SDS011;57514;52.164;5.282;2023-11-21T05:16:17;15.82;;;5.00;;
70148;SDS011;57514;52.164;5.282;2023-11-21T05:18:45;17.52;;;5.28;;
70148;SDS011;57514;52.164;5.282;2023-11-21T05:21:12;15.30;;;4.82;;
70148;SDS011;57514;52.164;5.282;2023-11-21T05:23:39;15.75;;;4.82;;
70148;SDS011;57514;52.164;5.282;2023-11-21T05:26:06;17.50;;;5.28;;
70148;SDS011;57514;52.164;5.282;2023-11-21T05:28:34;14.90;;;5.28;;
70148;SDS011;57514;52.164;5.282;2023-11-21T05:31:01;19.73;;;5.05;;
70148;SDS011;57514;52.164;5.282;2023-11-21T05:33:41;15.43;;;4.93;;
70148;SDS011;57514;52.164;5.282;2023-11-21T05:36:09;15.60;;;5.47;;
70148;SDS011;57514;52.164;5.282;2023-11-21T05:38:36;15.65;;;4.78;;
70148;SDS011;57514;52.164;5.282;2023-11-21T05:41:03;17.38;;;5.47;;
70148;SDS011;57514;52.164;5.282;2023-11-21T05:43:31;14.95;;;4.90;;
70148;SDS011;57514;52.164;5.282;2023-11-21T05:48:28;25.42;;;5.13;;
70148;SDS011;57514;52.164;5.282;2023-11-21T05:50:56;16.05;;;4.82;;
70148;SDS011;57514;52.164;5.282;2023-11-21T05:53:23;15.43;;;4.93;;
70148;SDS011;57514;52.164;5.282;2023-11-21T05:55:50;15.52;;;4.80;;
70148;SDS011;57514;52.164;5.282;2023-11-21T05:58:17;19.35;;;5.03;;
70148;SDS011;57514;52.164;5.282;2023-11-21T06:00:45;17.92;;;4.90;;
70148;SDS011;57514;52.164;5.282;2023-11-21T06:03:12;18.23;;;5.03;;
70148;SDS011;57514;52.164;5.282;2023-11-21T06:05:39;16.95;;;5.40;;
70148;SDS011;57514;52.164;5.282;2023-11-21T06:08:07;14.13;;;5.32;;
70148;SDS011;57514;52.164;5.282;2023-11-21T06:10:34;14.55;;;5.25;;
70148;SDS011;57514;52.164;5.282;2023-11-21T06:13:01;16.23;;;5.53;;
70148;SDS011;57514;52.164;5.282;2023-11-21T06:15:30;16.38;;;4.97;;
70148;SDS011;57514;52.164;5.282;2023-11-21T06:17:57;15.65;;;5.07;;
70148;SDS011;57514;52.164;5.282;2023-11-21T06:20:25;14.90;;;4.75;;
70148;SDS011;57514;52.164;5.282;2023-11-21T06:22:52;17.05;;;5.47;;
70148;SDS011;57514;52.164;5.282;2023-11-21T06:25:20;17.45;;;5.78;;
70148;SDS011;57514;52.164;5.282;2023-11-21T06:27:48;19.98;;;6.03;;
70148;SDS011;57514;52.164;5.282;2023-11-21T06:30:15;18.80;;;5.18;;
70148;SDS011;57514;52.164;5.282;2023-11-21T06:32:43;16.48;;;5.18;;
70148;SDS011;57514;52.164;5.282;2023-11-21T06:35:13;17.55;;;5.95;;
70148;SDS011;57514;52.164;5.282;2023-11-21T06:37:42;20.58;;;5.80;;
70148;SDS011;57514;52.164;5.282;2023-11-21T06:40:16;19.40;;;5.80;;
70148;SDS011;57514;52.164;5.282;2023-11-21T06:42:45;16.98;;;5.63;;
70148;SDS011;57514;52.164;5.282;2023-11-21T06:45:13;13.38;;;5.40;;
70148;SDS011;57514;52.164;5.282;2023-11-21T06:47:41;15.70;;;5.65;;
70148;SDS011;57514;52.164;5.282;2023-11-21T06:50:09;17.35;;;5.30;;
70148;SDS011;57514;52.164;5.282;2023-11-21T06:52:36;17.95;;;4.82;;
70148;SDS011;57514;52.164;5.282;2023-11-21T06:55:04;17.98;;;5.10;;
70148;SDS011;57514;52.164;5.282;2023-11-21T06:57:31;17.92;;;5.15;;
70148;SDS011;57514;52.164;5.282;2023-11-21T06:59:58;16.52;;;5.45;;
70148;SDS011;57514;52.164;5.282;2023-11-21T07:02:26;20.55;;;5.43;;
70148;SDS011;57514;52.164;5.282;2023-11-21T07:04:54;21.70;;;5.38;;
70148;SDS011;57514;52.164;5.282;2023-11-21T07:07:21;18.85;;;5.15;;
70148;SDS011;57514;52.164;5.282;2023-11-21T07:09:49;16.42;;;4.82;;
70148;SDS011;57514;52.164;5.282;2023-11-21T07:12:16;21.75;;;5.07;;
70148;SDS011;57514;52.164;5.282;2023-11-21T07:14:44;17.50;;;4.45;;
70148;SDS011;57514;52.164;5.282;2023-11-21T07:17:11;17.50;;;5.22;;
70148;SDS011;57514;52.164;5.282;2023-11-21T07:19:38;21.58;;;4.78;;
70148;SDS011;57514;52.164;5.282;2023-11-21T07:22:08;20.35;;;5.03;;
70148;SDS011;57514;52.164;5.282;2023-11-21T07:24:35;16.55;;;4.78;;
70148;SDS011;57514;52.164;5.282;2023-11-21T07:27:03;14.73;;;4.93;;
70148;SDS011;57514;52.164;5.282;2023-11-21T07:29:30;14.73;;;4.78;;
70148;SDS011;57514;52.164;5.282;2023-11-21T07:31:57;17.20;;;5.10;;
70148;SDS011;57514;52.164;5.282;2023-11-21T07:34:25;21.23;;;5.03;;
70148;SDS011;57514;52.164;5.282;2023-11-21T07:36:52;20.35;;;4.47;;
70148;SDS011;57514;52.164;5.282;2023-11-21T07:39:19;17.98;;;4.45;;
70148;SDS011;57514;52.164;5.282;2023-11-21T07:41:47;28.08;;;4.93;;
70148;SDS011;57514;52.164;5.282;2023-11-21T07:44:18;16.05;;;4.88;;
70148;SDS011;57514;52.164;5.282;2023-11-21T07:46:46;14.35;;;4.60;;
70148;SDS011;57514;52.164;5.282;2023-11-21T07:49:16;13.85;;;4.20;;
70148;SDS011;57514;52.164;5.282;2023-11-21T07:51:47;12.65;;;3.67;;
70148;SDS011;57514;52.164;5.282;2023-11-21T07:54:14;12.15;;;3.70;;
70148;SDS011;57514;52.164;5.282;2023-11-21T07:56:42;12.07;;;3.83;;
70148;SDS011;57514;52.164;5.282;2023-11-21T07:59:09;10.35;;;3.20;;
70148;SDS011;57514;52.164;5.282;2023-11-21T08:01:37;14.88;;;3.80;;
70148;SDS011;57514;52.164;5.282;2023-11-21T08:04:06;10.23;;;3.10;;
70148;SDS011;57514;52.164;5.282;2023-11-21T08:06:34;7.97;;;2.47;;
70148;SDS011;57514;52.164;5.282;2023-11-21T08:09:02;13.48;;;2.53;;
70148;SDS011;57514;52.164;5.282;2023-11-21T08:11:29;8.75;;;2.50;;
70148;SDS011;57514;52.164;5.282;2023-11-21T08:13:58;9.70;;;2.38;;
70148;SDS011;57514;52.164;5.282;2023-11-21T08:16:28;8.57;;;2.38;;
70148;SDS011;57514;52.164;5.282;2023-11-21T08:18:55;6.53;;;2.28;;
70148;SDS011;57514;52.164;5.282;2023-11-21T08:21:22;9.57;;;2.10;;
70148;SDS011;57514;52.164;5.282;2023-11-21T08:23:55;5.60;;;2.00;;
70148;SDS011;57514;52.164;5.282;2023-11-21T08:26:23;8.95;;;2.85;;
70148;SDS011;57514;52.164;5.282;2023-11-21T08:28:50;9.07;;;2.72;;
70148;SDS011;57514;52.164;5.282;2023-11-21T08:31:25;9.70;;;2.58;;
70148;SDS011;57514;52.164;5.282;2023-11-21T08:33:53;10.95;;;2.55;;
70148;SDS011;57514;52.164;5.282;2023-11-21T08:38:51;10.60;;;2.97;;
70148;SDS011;57514;52.164;5.282;2023-11-21T08:41:18;10.93;;;2.80;;
70148;SDS011;57514;52.164;5.282;2023-11-21T08:43:52;9.45;;;2.95;;
70148;SDS011;57514;52.164;5.282;2023-11-21T08:46:21;11.43;;;3.00;;
70148;SDS011;57514;52.164;5.282;2023-11-21T08:48:49;9.05;;;3.30;;
70148;SDS011;57514;52.164;5.282;2023-11-21T08:51:19;10.30;;;2.92;;
70148;SDS011;57514;52.164;5.282;2023-11-21T08:53:46;13.52;;;3.50;;
70148;SDS011;57514;52.164;5.282;2023-11-21T08:56:13;8.98;;;3.15;;
70148;SDS011;57514;52.164;5.282;2023-11-21T08:58:41;11.82;;;3.60;;
70148;SDS011;57514;52.164;5.282;2023-11-21T09:01:09;10.20;;;3.28;;
70148;SDS011;57514;52.164;5.282;2023-11-21T09:03:36;12.05;;;3.35;;
70148;SDS011;57514;52.164;5.282;2023-11-21T09:06:04;12.35;;;3.67;;
70148;SDS011;57514;52.164;5.282;2023-11-21T09:08:32;12.35;;;3.88;;
70148;SDS011;57514;52.164;5.282;2023-11-21T09:10:59;11.25;;;3.08;;
70148;SDS011;57514;52.164;5.282;2023-11-21T09:13:26;10.57;;;3.40;;
70148;SDS011;57514;52.164;5.282;2023-11-21T09:15:54;11.50;;;3.67;;
70148;SDS011;57514;52.164;5.282;2023-11-21T09:18:21;12.05;;;4.07;;
70148;SDS011;57514;52.164;5.282;2023-11-21T09:20:48;9.50;;;3.75;;
70148;SDS011;57514;52.164;5.282;2023-11-21T09:23:16;11.57;;;3.83;;
70148;SDS011;57514;52.164;5.282;2023-11-21T09:25:43;12.70;;;3.95;;
70148;SDS011;57514;52.164;5.282;2023-11-21T09:28:12;11.52;;;4.18;;
70148;SDS011;57514;52.164;5.282;2023-11-21T09:30:40;14.70;;;4.13;;
70148;SDS011;57514;52.164;5.282;2023-11-21T09:33:08;11.27;;;3.22;;
70148;SDS011;57514;52.164;5.282;2023-11-21T09:35:37;11.15;;;3.50;;
70148;SDS011;57514;52.164;5.282;2023-11-21T09:38:04;8.98;;;3.35;;
70148;SDS011;57514;52.164;5.282;2023-11-21T09:40:37;11.35;;;3.58;;
70148;SDS011;57514;52.164;5.282;2023-11-21T09:43:15;10.95;;;3.38;;
70148;SDS011;57514;52.164;5.282;2023-11-21T09:45:48;10.60;;;3.40;;
70148;SDS011;57514;52.164;5.282;2023-11-21T09:48:20;10.40;;;3.28;;
70148;SDS011;57514;52.164;5.282;2023-11-21T09:50:48;9.80;;;3.28;;
70148;SDS011;57514;52.164;5.282;2023-11-21T09:53:20;10.32;;;3.25;;
70148;SDS011;57514;52.164;5.282;2023-11-21T09:55:53;10.75;;;3.58;;
70148;SDS011;57514;52.164;5.282;2023-11-21T09:58:21;10.60;;;3.08;;
70148;SDS011;57514;52.164;5.282;2023-11-21T10:00:53;11.57;;;3.53;;
70148;SDS011;57514;52.164;5.282;2023-11-21T10:03:20;10.60;;;2.90;;
70148;SDS011;57514;52.164;5.282;2023-11-21T10:05:48;9.68;;;3.30;;
70148;SDS011;57514;52.164;5.282;2023-11-21T10:08:17;10.85;;;3.35;;
70148;SDS011;57514;52.164;5.282;2023-11-21T10:10:45;9.32;;;2.92;;
70148;SDS011;57514;52.164;5.282;2023-11-21T10:13:14;10.73;;;3.00;;
70148;SDS011;57514;52.164;5.282;2023-11-21T10:15:44;12.45;;;3.13;;
70148;SDS011;57514;52.164;5.282;2023-11-21T10:18:16;11.70;;;2.88;;
70148;SDS011;57514;52.164;5.282;2023-11-21T10:20:44;7.90;;;2.50;;
70148;SDS011;57514;52.164;5.282;2023-11-21T10:23:20;8.73;;;2.63;;
70148;SDS011;57514;52.164;5.282;2023-11-21T10:25:50;8.75;;;2.55;;
70148;SDS011;57514;52.164;5.282;2023-11-21T10:28:18;7.57;;;2.55;;
70148;SDS011;57514;52.164;5.282;2023-11-21T10:30:47;7.78;;;2.40;;
70148;SDS011;57514;52.164;5.282;2023-11-21T10:33:14;8.27;;;2.47;;
70148;SDS011;57514;52.164;5.282;2023-11-21T10:35:45;10.60;;;2.72;;
70148;SDS011;57514;52.164;5.282;2023-11-21T10:38:14;9.70;;;2.88;;
70148;SDS011;57514;52.164;5.282;2023-11-21T10:40:42;10.70;;;3.15;;
70148;SDS011;57514;52.164;5.282;2023-11-21T10:43:11;10.90;;;3.10;;
70148;SDS011;57514;52.164;5.282;2023-11-21T10:45:39;9.48;;;3.15;;
70148;SDS011;57514;52.164;5.282;2023-11-21T10:48:10;9.32;;;2.72;;
70148;SDS011;57514;52.164;5.282;2023-11-21T10:50:42;9.85;;;3.25;;
70148;SDS011;57514;52.164;5.282;2023-11-21T10:53:10;9.98;;;3.10;;
70148;SDS011;57514;52.164;5.282;2023-11-21T10:55:39;11.15;;;3.22;;
70148;SDS011;57514;52.164;5.282;2023-11-21T10:58:07;11.68;;;3.05;;
70148;SDS011;57514;52.164;5.282;2023-11-21T11:00:37;9.82;;;3.00;;
70148;SDS011;57514;52.164;5.282;2023-11-21T11:03:06;10.55;;;3.40;;
70148;SDS011;57514;52.164;5.282;2023-11-21T11:05:40;12.25;;;3.30;;
70148;SDS011;57514;52.164;5.282;2023-11-21T11:08:08;10.15;;;3.55;;
70148;SDS011;57514;52.164;5.282;2023-11-21T11:10:36;11.20;;;3.75;;
70148;SDS011;57514;52.164;5.282;2023-11-21T11:13:03;11.20;;;3.47;;
70148;SDS011;57514;52.164;5.282;2023-11-21T11:15:31;10.63;;;3.33;;
70148;SDS011;57514;52.164;5.282;2023-11-21T11:17:59;10.75;;;3.50;;
70148;SDS011;57514;52.164;5.282;2023-11-21T11:20:29;11.95;;;4.10;;
70148;SDS011;57514;52.164;5.282;2023-11-21T11:23:05;11.57;;;4.18;;
70148;SDS011;57514;52.164;5.282;2023-11-21T11:28:27;13.70;;;4.22;;
70148;SDS011;57514;52.164;5.282;2023-11-21T11:31:09;11.68;;;4.30;;
70148;SDS011;57514;52.164;5.282;2023-11-21T11:34:06;13.50;;;4.60;;
70148;SDS011;57514;52.164;5.282;2023-11-21T11:36:36;13.55;;;4.10;;
70148;SDS011;57514;52.164;5.282;2023-11-21T11:39:26;12.05;;;4.18;;
70148;SDS011;57514;52.164;5.282;2023-11-21T11:41:51;12.13;;;4.50;;
70148;SDS011;57514;52.164;5.282;2023-11-21T11:45:05;12.50;;;3.85;;
70148;SDS011;57514;52.164;5.282;2023-11-21T11:47:28;14.50;;;4.45;;
70148;SDS011;57514;52.164;5.282;2023-11-21T11:50:11;13.85;;;5.05;;
70148;SDS011;57514;52.164;5.282;2023-11-21T11:52:41;12.88;;;4.65;;
70148;SDS011;57514;52.164;5.282;2023-11-21T11:55:10;13.25;;;4.57;;
70148;SDS011;57514;52.164;5.282;2023-11-21T11:57:41;16.23;;;5.07;;
70148;SDS011;57514;52.164;5.282;2023-11-21T12:00:18;16.38;;;5.07;;
70148;SDS011;57514;52.164;5.282;2023-11-21T12:05:19;11.23;;;4.47;;
70148;SDS011;57514;52.164;5.282;2023-11-21T12:07:49;14.07;;;4.50;;
70148;SDS011;57514;52.164;5.282;2023-11-21T12:10:18;14.38;;;4.63;;
70148;SDS011;57514;52.164;5.282;2023-11-21T12:12:46;16.20;;;5.15;;
70148;SDS011;57514;52.164;5.282;2023-11-21T12:15:14;13.07;;;4.93;;
70148;SDS011;57514;52.164;5.282;2023-11-21T12:17:41;15.63;;;5.13;;
70148;SDS011;57514;52.164;5.282;2023-11-21T12:20:10;16.30;;;5.75;;
70148;SDS011;57514;52.164;5.282;2023-11-21T12:22:41;15.93;;;5.45;;
70148;SDS011;57514;52.164;5.282;2023-11-21T12:25:10;16.13;;;5.93;;
70148;SDS011;57514;52.164;5.282;2023-11-21T12:27:42;14.80;;;5.22;;
70148;SDS011;57514;52.164;5.282;2023-11-21T12:30:12;16.05;;;5.75;;
70148;SDS011;57514;52.164;5.282;2023-11-21T12:32:42;14.90;;;5.18;;
70148;SDS011;57514;52.164;5.282;2023-11-21T12:35:10;13.45;;;5.15;;
70148;SDS011;57514;52.164;5.282;2023-11-21T12:37:38;13.68;;;4.57;;
70148;SDS011;57514;52.164;5.282;2023-11-21T12:40:06;15.57;;;5.75;;
70148;SDS011;57514;52.164;5.282;2023-11-21T12:42:34;13.10;;;4.78;;
70148;SDS011;57514;52.164;5.282;2023-11-21T12:47:44;12.02;;;4.45;;
70148;SDS011;57514;52.164;5.282;2023-11-21T12:50:11;12.27;;;4.35;;
70148;SDS011;57514;52.164;5.282;2023-11-21T12:52:45;12.90;;;4.03;;
70148;SDS011;57514;52.164;5.282;2023-11-21T12:55:16;11.02;;;4.13;;
70148;SDS011;57514;52.164;5.282;2023-11-21T12:57:44;10.63;;;3.47;;
70148;SDS011;57514;52.164;5.282;2023-11-21T13:00:12;11.35;;;3.85;;
70148;SDS011;57514;52.164;5.282;2023-11-21T13:02:51;10.63;;;3.80;;
70148;SDS011;57514;52.164;5.282;2023-11-21T13:05:24;9.50;;;3.15;;
70148;SDS011;57514;52.164;5.282;2023-11-21T13:07:52;8.52;;;3.15;;
70148;SDS011;57514;52.164;5.282;2023-11-21T13:10:24;8.50;;;3.10;;
70148;SDS011;57514;52.164;5.282;2023-11-21T13:12:52;10.18;;;3.10;;
70148;SDS011;57514;52.164;5.282;2023-11-21T13:15:21;9.68;;;2.85;;
70148;SDS011;57514;52.164;5.282;2023-11-21T13:17:48;8.82;;;2.40;;
70148;SDS011;57514;52.164;5.282;2023-11-21T13:20:17;9.68;;;2.63;;
70148;SDS011;57514;52.164;5.282;2023-11-21T13:22:47;6.63;;;1.83;;
70148;SDS011;57514;52.164;5.282;2023-11-21T13:25:18;8.48;;;1.92;;
70148;SDS011;57514;52.164;5.282;2023-11-21T13:27:45;5.57;;;1.92;;
70148;SDS011;57514;52.164;5.282;2023-11-21T13:30:13;4.90;;;1.75;;
70148;SDS011;57514;52.164;5.282;2023-11-21T13:32:49;6.18;;;1.88;;
70148;SDS011;57514;52.164;5.282;2023-11-21T13:35:18;5.95;;;1.92;;
70148;SDS011;57514;52.164;5.282;2023-11-21T13:37:57;6.68;;;1.88;;
70148;SDS011;57514;52.164;5.282;2023-11-21T13:40:26;4.80;;;1.70;;
70148;SDS011;57514;52.164;5.282;2023-11-21T13:42:53;5.35;;;1.75;;
70148;SDS011;57514;52.164;5.282;2023-11-21T13:45:21;7.07;;;2.13;;
70148;SDS011;57514;52.164;5.282;2023-11-21T13:47:49;5.65;;;1.83;;
70148;SDS011;57514;52.164;5.282;2023-11-21T13:50:18;7.25;;;2.22;;
70148;SDS011;57514;52.164;5.282;2023-11-21T13:52:53;6.85;;;2.22;;
70148;SDS011;57514;52.164;5.282;2023-11-21T13:55:20;8.05;;;2.95;;
70148;SDS011;57514;52.164;5.282;2023-11-21T13:57:51;9.63;;;3.25;;
70148;SDS011;57514;52.164;5.282;2023-11-21T14:00:19;8.60;;;2.95;;
70148;SDS011;57514;52.164;5.282;2023-11-21T14:03:04;10.57;;;3.25;;
70148;SDS011;57514;52.164;5.282;2023-11-21T14:05:37;11.23;;;3.47;;
70148;SDS011;57514;52.164;5.282;2023-11-21T14:08:05;11.10;;;3.72;;
70148;SDS011;57514;52.164;5.282;2023-11-21T14:10:32;11.75;;;4.32;;
70148;SDS011;57514;52.164;5.282;2023-11-21T14:13:17;11.18;;;4.15;;
70148;SDS011;57514;52.164;5.282;2023-11-21T14:15:45;12.35;;;4.28;;
70148;SDS011;57514;52.164;5.282;2023-11-21T14:18:17;12.15;;;4.68;;
70148;SDS011;57514;52.164;5.282;2023-11-21T14:20:53;14.20;;;5.20;;
70148;SDS011;57514;52.164;5.282;2023-11-21T14:23:21;13.35;;;4.75;;
70148;SDS011;57514;52.164;5.282;2023-11-21T14:25:49;12.77;;;5.30;;
70148;SDS011;57514;52.164;5.282;2023-11-21T14:28:18;14.32;;;6.15;;
70148;SDS011;57514;52.164;5.282;2023-11-21T14:30:46;14.77;;;5.63;;
70148;SDS011;57514;52.164;5.282;2023-11-21T14:33:13;14.48;;;5.38;;
70148;SDS011;57514;52.164;5.282;2023-11-21T14:35:42;14.38;;;5.75;;
70148;SDS011;57514;52.164;5.282;2023-11-21T14:38:11;14.82;;;5.55;;
70148;SDS011;57514;52.164;5.282;2023-11-21T14:40:40;14.32;;;5.68;;
70148;SDS011;57514;52.164;5.282;2023-11-21T14:43:07;14.82;;;6.03;;
70148;SDS011;57514;52.164;5.282;2023-11-21T14:45:35;14.07;;;5.82;;
70148;SDS011;57514;52.164;5.282;2023-11-21T14:48:02;16.35;;;6.30;;
70148;SDS011;57514;52.164;5.282;2023-11-21T14:50:34;15.43;;;6.07;;
70148;SDS011;57514;52.164;5.282;2023-11-21T14:53:08;14.18;;;5.90;;
70148;SDS011;57514;52.164;5.282;2023-11-21T14:55:35;15.25;;;6.32;;
70148;SDS011;57514;52.164;5.282;2023-11-21T14:58:12;14.55;;;5.80;;